Heidelberg, Texas
Current Conditions -  °F | °C
As of 4:15 PM on Sunday 21 Dec 2014 (Local Time) from KT65 Reporting Station
Haze Haze  
Wind Chill: 63°   Ceiling: 1500
Heat Index: 63°   Visibility: 5mi
Dew Point: 56°   Wind: 6mph
Humidity: 80%   Direction: 30°NNE
Pressure: 29.93"   Gusts: NA
Location:  26.1456°N, 97.91°W
Report Text: KT65 212215Z AUTO 03005KT 5SM HZ OVC015 17/14 A2993 RMK AO2 T01700135
Loading
Personal Weather Stations






























Interactive Weather Map New forecast layout! Learn more

10-Day Weather Forecast

Advertisements
Track Severe Weather on mobile